• Join FlightAware (Why Join?)
  • Login
  • US Flag 
01:50PM EDT


 

Airport Tracker/Info


-or-


 

Live Flight TrackerFlight Track Log ✈ ANO333 ✈ 26-Aug-2013 ✈ YPKU / KNX - YPDN / DRW

Flight Track Log - Related Links

Times and Time Zones

All times are in EDT time to prevent confusion due to time zone crossing. See the ANO333 flight status page for this flight to view local times or setup timezone preferences in your user account.

Time Position Orientation Groundspeed Altitude Reporting Facility
EDT Latitude Longitude Course Direction KTS MPH feet Rate Location/Type
02:54AM -15.7062 128.7551 33° Northeast 31,000  Level Aus ATC (Calculated)
02:55AM -15.6369 128.8013 33° Northeast 31,000 -1,080 Level Aus ATC (Calculated)
02:55AM -15.5676 128.8475 33° Northeast 31,000 -1,140 Level Aus ATC (Calculated)
02:56AM -15.5005 128.8924 33° Northeast 31,000 -1,200 Level Aus ATC (Calculated)
02:57AM -15.4983 128.8936 33° Northeast 31,000 -1,320 Level Aus ATC (Calculated)
02:57AM -15.4311 128.9385 33° Northeast 31,000 -1,440 Level Aus ATC (Calculated)
02:58AM -15.2903 129.0319 33° Northeast 31,000 -1,560 Level Aus ATC (Calculated)
02:59AM -15.3126 129.0172 33° Northeast  Level FlightAware Approximate
03:00AM -15.1965 129.0941 33° Northeast  Level FlightAware Approximate
03:00AM -15.0822 129.1698 34° Northeast 31,000  Level Aus ATC (Calculated)
03:01AM -15.1183 129.1459 33° Northeast  Level FlightAware Approximate
03:02AM -14.9988 129.2250 33° Northeast  Level FlightAware Approximate
03:03AM -14.9206 129.2767 33° Northeast  Level FlightAware Approximate
03:03AM -15.0447 129.1955 33° Northeast 387 445 22,200  Level Aus ATC (RADAR)
03:03AM -14.9967 129.2243 30° Northeast 400 460 22,800 1,260 Climbing Aus ATC (RADAR)
03:04AM -14.9422 129.2611 33° Northeast 404 465 23,600 1,440 Climbing Aus ATC (RADAR)
03:05AM -14.8790 129.3027 32° Northeast 404 465 24,600 1,380 Climbing Aus ATC (RADAR)
03:05AM -14.8171 129.3465 34° Northeast 407 468 25,500 1,080 Climbing Aus ATC (RADAR)
03:06AM -14.7592 129.3815 30° Northeast 412 474 26,000 900 Climbing Aus ATC (RADAR)
03:06AM -14.7025 129.4207 34° Northeast 421 484 26,600 1,080 Climbing Aus ATC (RADAR)
03:07AM -14.6437 129.4590 32° Northeast 428 493 27,300 1,380 Climbing Aus ATC (RADAR)
03:08AM -14.5512 129.5202 33° Northeast 432 497 28,700 1,320 Climbing Aus ATC (RADAR)
03:09AM -14.4487 129.5862 32° Northeast 436 502 29,900 1,200 Climbing Aus ATC (RADAR)
03:10AM -14.3713 129.6379 33° Northeast 443 510 30,900 1,620 Climbing Aus ATC (RADAR)
03:10AM -14.3109 129.6769 32° Northeast 440 506 32,100 1,620 Climbing Aus ATC (RADAR)
03:11AM -14.2354 129.7265 32° Northeast 431 496 33,100 480 Climbing Aus ATC (RADAR)
03:12AM -14.1198 129.8005 32° Northeast 456 525 33,000 -60 Descending Aus ATC (RADAR)
03:13AM -14.0216 129.8662 33° Northeast 459 528 33,000  Level Aus ATC (RADAR)
03:14AM -13.9141 129.9382 33° Northeast 461 531 33,000  Level Aus ATC (RADAR)
03:15AM -13.8417 129.9843 32° Northeast 460 529 33,000  Level Aus ATC (RADAR)
03:15AM -13.7701 130.0312 32° Northeast 458 527 33,000 -120 Level Aus ATC (RADAR)
03:16AM -13.7074 130.0720 32° Northeast 458 527 32,900 -660 Descending Aus ATC (RADAR)
03:16AM -13.6890 130.0860 33° Northeast 461 531 32,500 -2,400 Descending FlightAware
03:16AM -13.6448 130.1137 33° Northeast 459 528 31,500 -2,580 Descending Aus ATC (RADAR)
03:17AM -13.6250 130.1280 33° Northeast 457 526 31,000 -2,400 Descending FlightAware
03:17AM -13.5590 130.1700 32° Northeast 459 528 29,600 -2,400 Descending FlightAware
03:18AM -13.4970 130.2100 32° Northeast 446 513 28,200 -2,520 Descending FlightAware
03:18AM -13.4398 130.2471 32° Northeast 449 517 26,800 -2,520 Descending Aus ATC (RADAR)
03:18AM -13.4370 130.2500 32° Northeast 440 506 26,800 -2,400 Level FlightAware
03:19AM -13.3792 130.2869 32° Northeast 444 511 25,400 -2,400 Descending Aus ATC (RADAR)
03:19AM -13.3750 130.2900 32° Northeast 438 504 25,400 -2,100 Level FlightAware
03:20AM -13.3160 130.3290 33° Northeast 424 488 24,100 -2,280 Descending FlightAware
03:20AM -13.2580 130.3660 32° Northeast 419 482 22,800 -2,280 Descending FlightAware
03:21AM -13.2020 130.4030 33° Northeast 406 467 21,500 -2,340 Descending FlightAware
03:21AM -13.1430 130.4410 32° Northeast 397 457 20,100 -2,160 Descending FlightAware
03:22AM -13.0890 130.4760 32° Northeast 384 442 19,000 -2,100 Descending FlightAware
03:23AM -13.0350 130.5110 32° Northeast 383 441 17,700 -2,160 Descending FlightAware
03:23AM -12.9820 130.5450 32° Northeast 381 438 16,500 -2,100 Descending FlightAware
03:24AM -12.9300 130.5790 33° Northeast 378 435 15,300 -1,980 Descending FlightAware
03:24AM -12.8790 130.6120 32° Northeast 362 417 14,200 -1,800 Descending FlightAware
03:25AM -12.8330 130.6410 32° Northeast 341 392 13,200 -1,800 Descending FlightAware
03:25AM -12.7860 130.6720 33° Northeast 323 372 12,100 -1,860 Descending FlightAware
03:26AM -12.7466 130.6976 33° Northeast 319 367 11,200 -1,740 Descending Aus ATC (RADAR)
03:26AM -12.7420 130.7000 33° Northeast 309 356 11,100 -1,560 Descending FlightAware
03:27AM -12.7020 130.7270 33° Northeast 289 333 10,200 -1,440 Descending FlightAware
03:27AM -12.6850 130.7370 30° Northeast 286 329 9,900 -1,380 Descending FlightAware
03:27AM -12.6580 130.7540 32° Northeast 285 328 9,300 -1,560 Descending FlightAware
03:27AM -12.6420 130.7590 17° North 279 321 9,000 -2,040 Descending FlightAware
03:28AM -12.6350 130.7600 North 288 331 8,800 -1,920 Descending FlightAware
03:28AM -12.6090 130.7540 347° North 281 323 8,200 -1,740 Descending FlightAware
03:28AM -12.5920 130.7440 330° Northwest 281 323 7,800 -1,680 Descending FlightAware
03:29AM -12.5630 130.7270 330° Northwest 300 345 7,100 -1,620 Descending FlightAware
03:29AM -12.5380 130.7120 330° Northwest 294 338 6,600 -1,140 Descending FlightAware
03:29AM -12.5220 130.7020 329° Northwest 279 321 6,400 -780 Descending FlightAware
03:30AM -12.4940 130.6860 331° Northwest 262 302 6,100 -720 Descending FlightAware
03:30AM -12.4730 130.6740 331° Northwest 242 278 5,900 -600 Descending FlightAware
03:30AM -12.4540 130.6630 331° Northwest 231 266 5,700 -720 Descending FlightAware
03:31AM -12.4310 130.6500 331° Northwest 215 247 5,400 -540 Descending FlightAware
03:31AM -12.4210 130.6480 349° North 212 244 5,400 -900 Level FlightAware
03:31AM -12.3970 130.6540 14° North 206 237 4,900 -1,200 Descending FlightAware
03:32AM -12.3770 130.6610 19° North 207 238 4,500 -1,200 Descending FlightAware
03:32AM -12.3650 130.6670 26° Northeast 204 235 4,200 -1,200 Descending FlightAware
03:32AM -12.3560 130.6790 52° Northeast 201 231 3,900 -1,200 Descending FlightAware
03:32AM -12.3540 130.6840 68° East 200 230 3,800 -1,200 Descending FlightAware
03:32AM -12.3530 130.6880 76° East 197 227 3,700 -840 Descending FlightAware
03:32AM -12.3540 130.6980 96° East 195 224 3,600 -1,020 Descending FlightAware
03:33AM -12.3590 130.7150 107° East 194 223 3,200 -1,080 Descending FlightAware
03:33AM -12.3640 130.7310 108° East 186 214 2,900 -1,080 Descending FlightAware
03:33AM -12.3700 130.7490 109° East 180 207 2,500 -1,080 Descending FlightAware
03:34AM -12.3740 130.7600 110° East 171 197 2,300 -780 Descending FlightAware
03:34AM -12.3800 130.7780 109° East 157 181 2,000 -900 Descending FlightAware
03:35AM -12.3860 130.7980 107° East 135 155 1,500 -840 Descending FlightAware
03:35AM -12.3900 130.8070 114° Southeast 121 139 1,400 -540 Descending FlightAware
03:35AM -12.3930 130.8180 106° East 117 135 1,200 -720 Descending FlightAware
03:35AM -12.3960 130.8260 111° Southeast 115 132 1,000 -720 Descending FlightAware
03:36AM -12.4000 130.8370 110° East 118 136 800 -720 Descending FlightAware
03:36AM -12.4050 130.8510 110° East 119 137 500 -720 Descending FlightAware
03:36AM -12.4080 130.8610 107° East 121 139 300 -600 Descending FlightAware
03:37AM -12.4100 130.8660 112° Southeast 122 140 200 -180 Descending FlightAware
03:37AM -12.4140 130.8780 109° East 56 64 200  Level FlightAware